sensor_id;sensor_type;location;lat;lon;timestamp;P1;durP1;ratioP1;P2;durP2;ratioP2
41305;SDS011;27051;50.376;19.152;2023-05-10T00:02:14;10.70;;;4.80;;
41305;SDS011;27051;50.376;19.152;2023-05-10T00:04:40;11.90;;;4.70;;
41305;SDS011;27051;50.376;19.152;2023-05-10T00:07:07;15.30;;;5.80;;
41305;SDS011;27051;50.376;19.152;2023-05-10T00:09:33;11.20;;;5.00;;
41305;SDS011;27051;50.376;19.152;2023-05-10T00:12:00;8.10;;;4.80;;
41305;SDS011;27051;50.376;19.152;2023-05-10T00:14:27;12.80;;;5.10;;
41305;SDS011;27051;50.376;19.152;2023-05-10T00:16:53;9.90;;;4.90;;
41305;SDS011;27051;50.376;19.152;2023-05-10T00:19:20;11.20;;;5.00;;
41305;SDS011;27051;50.376;19.152;2023-05-10T00:21:46;18.20;;;5.80;;
41305;SDS011;27051;50.376;19.152;2023-05-10T00:24:13;15.20;;;5.80;;
41305;SDS011;27051;50.376;19.152;2023-05-10T00:26:40;16.10;;;6.70;;
41305;SDS011;27051;50.376;19.152;2023-05-10T00:29:06;18.30;;;5.90;;
41305;SDS011;27051;50.376;19.152;2023-05-10T00:31:33;16.30;;;6.70;;
41305;SDS011;27051;50.376;19.152;2023-05-10T00:33:59;19.10;;;7.80;;
41305;SDS011;27051;50.376;19.152;2023-05-10T00:36:26;19.10;;;7.50;;
41305;SDS011;27051;50.376;19.152;2023-05-10T00:38:53;21.10;;;7.70;;
41305;SDS011;27051;50.376;19.152;2023-05-10T00:41:19;23.10;;;8.10;;
41305;SDS011;27051;50.376;19.152;2023-05-10T00:43:46;23.20;;;8.40;;
41305;SDS011;27051;50.376;19.152;2023-05-10T00:46:14;21.50;;;8.50;;
41305;SDS011;27051;50.376;19.152;2023-05-10T00:48:42;24.50;;;9.80;;
41305;SDS011;27051;50.376;19.152;2023-05-10T00:51:09;27.90;;;9.50;;
41305;SDS011;27051;50.376;19.152;2023-05-10T00:53:36;25.40;;;9.00;;
41305;SDS011;27051;50.376;19.152;2023-05-10T00:56:03;26.00;;;10.40;;
41305;SDS011;27051;50.376;19.152;2023-05-10T00:58:29;26.20;;;10.20;;
41305;SDS011;27051;50.376;19.152;2023-05-10T01:00:56;27.30;;;10.00;;
41305;SDS011;27051;50.376;19.152;2023-05-10T01:03:25;29.50;;;10.50;;
41305;SDS011;27051;50.376;19.152;2023-05-10T01:05:52;27.40;;;10.60;;
41305;SDS011;27051;50.376;19.152;2023-05-10T01:08:18;27.60;;;10.90;;
41305;SDS011;27051;50.376;19.152;2023-05-10T01:10:46;28.30;;;11.00;;
41305;SDS011;27051;50.376;19.152;2023-05-10T01:13:12;28.80;;;11.00;;
41305;SDS011;27051;50.376;19.152;2023-05-10T01:15:40;26.30;;;10.40;;
41305;SDS011;27051;50.376;19.152;2023-05-10T01:18:07;25.30;;;11.00;;
41305;SDS011;27051;50.376;19.152;2023-05-10T01:20:36;23.00;;;10.10;;
41305;SDS011;27051;50.376;19.152;2023-05-10T01:23:18;22.60;;;10.80;;
41305;SDS011;27051;50.376;19.152;2023-05-10T01:29:11;21.00;;;9.10;;
41305;SDS011;27051;50.376;19.152;2023-05-10T01:31:55;26.00;;;10.80;;
41305;SDS011;27051;50.376;19.152;2023-05-10T01:34:52;23.60;;;10.40;;
41305;SDS011;27051;50.376;19.152;2023-05-10T01:37:36;25.90;;;9.70;;
41305;SDS011;27051;50.376;19.152;2023-05-10T01:43:22;21.70;;;8.80;;
41305;SDS011;27051;50.376;19.152;2023-05-10T01:46:05;22.90;;;9.70;;
41305;SDS011;27051;50.376;19.152;2023-05-10T01:48:36;22.70;;;9.20;;
41305;SDS011;27051;50.376;19.152;2023-05-10T01:51:06;21.20;;;9.50;;
41305;SDS011;27051;50.376;19.152;2023-05-10T01:53:34;21.90;;;9.60;;
41305;SDS011;27051;50.376;19.152;2023-05-10T01:56:03;26.30;;;9.40;;
41305;SDS011;27051;50.376;19.152;2023-05-10T01:58:32;25.30;;;10.30;;
41305;SDS011;27051;50.376;19.152;2023-05-10T02:01:03;21.00;;;9.10;;
41305;SDS011;27051;50.376;19.152;2023-05-10T02:03:30;23.00;;;8.80;;
41305;SDS011;27051;50.376;19.152;2023-05-10T02:06:02;23.40;;;9.80;;
41305;SDS011;27051;50.376;19.152;2023-05-10T02:08:29;21.20;;;8.90;;
41305;SDS011;27051;50.376;19.152;2023-05-10T02:10:58;22.90;;;9.90;;
41305;SDS011;27051;50.376;19.152;2023-05-10T02:13:25;35.00;;;14.10;;
41305;SDS011;27051;50.376;19.152;2023-05-10T02:15:54;36.10;;;13.80;;
41305;SDS011;27051;50.376;19.152;2023-05-10T02:18:21;43.10;;;16.60;;
41305;SDS011;27051;50.376;19.152;2023-05-10T02:20:50;43.30;;;16.60;;
41305;SDS011;27051;50.376;19.152;2023-05-10T02:23:20;60.20;;;18.20;;
41305;SDS011;27051;50.376;19.152;2023-05-10T02:25:48;46.00;;;16.10;;
41305;SDS011;27051;50.376;19.152;2023-05-10T02:28:16;46.60;;;16.10;;
41305;SDS011;27051;50.376;19.152;2023-05-10T02:30:44;45.90;;;15.30;;
41305;SDS011;27051;50.376;19.152;2023-05-10T02:33:11;43.80;;;15.30;;
41305;SDS011;27051;50.376;19.152;2023-05-10T02:35:38;39.70;;;14.30;;
41305;SDS011;27051;50.376;19.152;2023-05-10T02:38:06;37.80;;;13.00;;
41305;SDS011;27051;50.376;19.152;2023-05-10T02:40:35;34.10;;;12.90;;
41305;SDS011;27051;50.376;19.152;2023-05-10T02:43:03;36.90;;;13.80;;
41305;SDS011;27051;50.376;19.152;2023-05-10T02:45:32;29.10;;;11.30;;
41305;SDS011;27051;50.376;19.152;2023-05-10T02:48:01;30.10;;;12.80;;
41305;SDS011;27051;50.376;19.152;2023-05-10T02:50:28;27.50;;;11.80;;
41305;SDS011;27051;50.376;19.152;2023-05-10T02:53:03;30.70;;;11.40;;
41305;SDS011;27051;50.376;19.152;2023-05-10T02:55:38;29.80;;;10.80;;
41305;SDS011;27051;50.376;19.152;2023-05-10T02:58:07;28.70;;;11.60;;
41305;SDS011;27051;50.376;19.152;2023-05-10T03:00:34;31.70;;;10.80;;
41305;SDS011;27051;50.376;19.152;2023-05-10T03:03:01;27.90;;;10.40;;
41305;SDS011;27051;50.376;19.152;2023-05-10T03:05:27;37.80;;;12.70;;
41305;SDS011;27051;50.376;19.152;2023-05-10T03:07:54;29.70;;;11.80;;
41305;SDS011;27051;50.376;19.152;2023-05-10T03:10:22;28.80;;;10.20;;
41305;SDS011;27051;50.376;19.152;2023-05-10T03:20:56;21.70;;;10.00;;
41305;SDS011;27051;50.376;19.152;2023-05-10T03:23:35;23.90;;;9.10;;
41305;SDS011;27051;50.376;19.152;2023-05-10T03:26:29;21.40;;;8.20;;
41305;SDS011;27051;50.376;19.152;2023-05-10T03:28:56;24.10;;;9.30;;
41305;SDS011;27051;50.376;19.152;2023-05-10T03:31:24;25.10;;;9.70;;
41305;SDS011;27051;50.376;19.152;2023-05-10T03:33:52;21.60;;;9.00;;
41305;SDS011;27051;50.376;19.152;2023-05-10T03:36:19;18.70;;;8.00;;
41305;SDS011;27051;50.376;19.152;2023-05-10T03:38:46;22.70;;;9.30;;
41305;SDS011;27051;50.376;19.152;2023-05-10T03:41:13;24.70;;;12.50;;
41305;SDS011;27051;50.376;19.152;2023-05-10T03:43:39;22.80;;;10.30;;
41305;SDS011;27051;50.376;19.152;2023-05-10T03:46:06;20.10;;;9.00;;
41305;SDS011;27051;50.376;19.152;2023-05-10T03:48:33;21.90;;;9.30;;
41305;SDS011;27051;50.376;19.152;2023-05-10T03:50:59;17.90;;;7.50;;
41305;SDS011;27051;50.376;19.152;2023-05-10T03:53:26;14.00;;;7.70;;
41305;SDS011;27051;50.376;19.152;2023-05-10T03:55:53;15.10;;;7.20;;
41305;SDS011;27051;50.376;19.152;2023-05-10T03:58:19;14.00;;;6.80;;
41305;SDS011;27051;50.376;19.152;2023-05-10T04:00:53;14.50;;;7.20;;
41305;SDS011;27051;50.376;19.152;2023-05-10T04:03:20;14.30;;;6.40;;
41305;SDS011;27051;50.376;19.152;2023-05-10T04:05:46;12.90;;;6.60;;
41305;SDS011;27051;50.376;19.152;2023-05-10T04:08:13;12.90;;;6.40;;
41305;SDS011;27051;50.376;19.152;2023-05-10T04:10:39;15.00;;;6.40;;
41305;SDS011;27051;50.376;19.152;2023-05-10T04:13:06;13.50;;;6.60;;
41305;SDS011;27051;50.376;19.152;2023-05-10T04:15:33;14.40;;;6.80;;
41305;SDS011;27051;50.376;19.152;2023-05-10T04:17:59;16.40;;;6.70;;
41305;SDS011;27051;50.376;19.152;2023-05-10T04:20:26;16.50;;;6.00;;
41305;SDS011;27051;50.376;19.152;2023-05-10T04:22:53;17.10;;;5.90;;
41305;SDS011;27051;50.376;19.152;2023-05-10T04:25:19;12.80;;;6.20;;
41305;SDS011;27051;50.376;19.152;2023-05-10T04:27:49;14.70;;;7.00;;
41305;SDS011;27051;50.376;19.152;2023-05-10T04:30:16;11.20;;;5.90;;
41305;SDS011;27051;50.376;19.152;2023-05-10T04:32:42;16.20;;;6.80;;
41305;SDS011;27051;50.376;19.152;2023-05-10T04:35:09;14.20;;;6.50;;
41305;SDS011;27051;50.376;19.152;2023-05-10T04:37:36;15.00;;;6.60;;
41305;SDS011;27051;50.376;19.152;2023-05-10T04:40:02;16.30;;;7.20;;
41305;SDS011;27051;50.376;19.152;2023-05-10T04:42:30;19.10;;;8.30;;
41305;SDS011;27051;50.376;19.152;2023-05-10T04:44:57;19.60;;;7.90;;
41305;SDS011;27051;50.376;19.152;2023-05-10T04:47:23;17.40;;;8.00;;
41305;SDS011;27051;50.376;19.152;2023-05-10T04:49:50;21.10;;;8.80;;
41305;SDS011;27051;50.376;19.152;2023-05-10T04:52:17;24.00;;;9.00;;
41305;SDS011;27051;50.376;19.152;2023-05-10T04:54:43;21.90;;;8.30;;
41305;SDS011;27051;50.376;19.152;2023-05-10T04:57:10;25.90;;;9.70;;
41305;SDS011;27051;50.376;19.152;2023-05-10T04:59:36;23.90;;;9.60;;
41305;SDS011;27051;50.376;19.152;2023-05-10T05:02:03;24.40;;;10.00;;
41305;SDS011;27051;50.376;19.152;2023-05-10T05:04:31;24.40;;;10.00;;
41305;SDS011;27051;50.376;19.152;2023-05-10T05:06:57;21.60;;;9.90;;
41305;SDS011;27051;50.376;19.152;2023-05-10T05:09:24;25.10;;;10.40;;
41305;SDS011;27051;50.376;19.152;2023-05-10T05:11:51;26.40;;;10.00;;
41305;SDS011;27051;50.376;19.152;2023-05-10T05:14:17;27.80;;;11.40;;
41305;SDS011;27051;50.376;19.152;2023-05-10T05:16:44;19.90;;;9.80;;
41305;SDS011;27051;50.376;19.152;2023-05-10T05:19:11;23.30;;;10.00;;
41305;SDS011;27051;50.376;19.152;2023-05-10T05:21:37;24.70;;;9.70;;
41305;SDS011;27051;50.376;19.152;2023-05-10T05:24:04;22.10;;;9.50;;
41305;SDS011;27051;50.376;19.152;2023-05-10T05:26:32;28.00;;;9.60;;
41305;SDS011;27051;50.376;19.152;2023-05-10T05:28:58;24.90;;;10.50;;
41305;SDS011;27051;50.376;19.152;2023-05-10T05:31:25;24.20;;;10.20;;
41305;SDS011;27051;50.376;19.152;2023-05-10T05:33:51;24.10;;;10.30;;
41305;SDS011;27051;50.376;19.152;2023-05-10T05:36:18;24.70;;;9.60;;
41305;SDS011;27051;50.376;19.152;2023-05-10T05:38:45;20.10;;;8.40;;
41305;SDS011;27051;50.376;19.152;2023-05-10T05:41:12;16.70;;;6.20;;
41305;SDS011;27051;50.376;19.152;2023-05-10T05:43:38;15.30;;;5.60;;
41305;SDS011;27051;50.376;19.152;2023-05-10T05:46:05;9.30;;;4.60;;
41305;SDS011;27051;50.376;19.152;2023-05-10T05:48:32;15.20;;;5.40;;
41305;SDS011;27051;50.376;19.152;2023-05-10T05:50:58;14.80;;;5.10;;
41305;SDS011;27051;50.376;19.152;2023-05-10T05:53:25;9.10;;;4.50;;
41305;SDS011;27051;50.376;19.152;2023-05-10T05:55:55;10.70;;;5.60;;
41305;SDS011;27051;50.376;19.152;2023-05-10T05:58:23;11.50;;;4.60;;
41305;SDS011;27051;50.376;19.152;2023-05-10T06:00:51;10.90;;;4.60;;
41305;SDS011;27051;50.376;19.152;2023-05-10T06:03:18;10.00;;;4.60;;
41305;SDS011;27051;50.376;19.152;2023-05-10T06:05:45;9.50;;;4.90;;
41305;SDS011;27051;50.376;19.152;2023-05-10T06:08:12;12.40;;;5.10;;
41305;SDS011;27051;50.376;19.152;2023-05-10T06:10:39;11.20;;;5.00;;
41305;SDS011;27051;50.376;19.152;2023-05-10T06:13:06;12.00;;;5.30;;
41305;SDS011;27051;50.376;19.152;2023-05-10T06:15:32;10.80;;;5.00;;
41305;SDS011;27051;50.376;19.152;2023-05-10T06:17:59;9.10;;;4.70;;
41305;SDS011;27051;50.376;19.152;2023-05-10T06:20:26;13.40;;;5.60;;
41305;SDS011;27051;50.376;19.152;2023-05-10T06:22:52;7.70;;;4.50;;
41305;SDS011;27051;50.376;19.152;2023-05-10T06:25:19;15.60;;;5.30;;
41305;SDS011;27051;50.376;19.152;2023-05-10T06:27:46;13.20;;;5.10;;
41305;SDS011;27051;50.376;19.152;2023-05-10T06:30:13;11.10;;;4.60;;
41305;SDS011;27051;50.376;19.152;2023-05-10T06:32:40;14.10;;;4.90;;
41305;SDS011;27051;50.376;19.152;2023-05-10T06:35:08;12.80;;;5.30;;
41305;SDS011;27051;50.376;19.152;2023-05-10T06:37:35;12.00;;;5.40;;
41305;SDS011;27051;50.376;19.152;2023-05-10T06:40:01;10.80;;;4.80;;
41305;SDS011;27051;50.376;19.152;2023-05-10T06:42:28;9.90;;;4.60;;
41305;SDS011;27051;50.376;19.152;2023-05-10T06:44:55;8.90;;;4.40;;
41305;SDS011;27051;50.376;19.152;2023-05-10T06:47:23;7.70;;;4.30;;
41305;SDS011;27051;50.376;19.152;2023-05-10T06:49:50;9.20;;;4.70;;
41305;SDS011;27051;50.376;19.152;2023-05-10T06:52:17;8.70;;;4.20;;
41305;SDS011;27051;50.376;19.152;2023-05-10T06:54:44;8.10;;;4.00;;
41305;SDS011;27051;50.376;19.152;2023-05-10T06:57:15;10.30;;;3.80;;
41305;SDS011;27051;50.376;19.152;2023-05-10T06:59:44;9.00;;;4.10;;
41305;SDS011;27051;50.376;19.152;2023-05-10T07:02:10;9.00;;;4.00;;
41305;SDS011;27051;50.376;19.152;2023-05-10T07:04:38;10.50;;;5.30;;
41305;SDS011;27051;50.376;19.152;2023-05-10T07:07:05;7.60;;;4.20;;
41305;SDS011;27051;50.376;19.152;2023-05-10T07:09:32;8.60;;;4.30;;
41305;SDS011;27051;50.376;19.152;2023-05-10T07:11:59;11.60;;;4.60;;
41305;SDS011;27051;50.376;19.152;2023-05-10T07:14:25;12.00;;;4.30;;
41305;SDS011;27051;50.376;19.152;2023-05-10T07:16:53;7.70;;;4.30;;
41305;SDS011;27051;50.376;19.152;2023-05-10T07:19:20;11.20;;;4.50;;
41305;SDS011;27051;50.376;19.152;2023-05-10T07:21:48;9.80;;;3.90;;
41305;SDS011;27051;50.376;19.152;2023-05-10T07:24:16;9.60;;;3.60;;
41305;SDS011;27051;50.376;19.152;2023-05-10T07:26:43;12.40;;;3.70;;
41305;SDS011;27051;50.376;19.152;2023-05-10T07:29:11;7.40;;;3.80;;
41305;SDS011;27051;50.376;19.152;2023-05-10T07:31:39;7.60;;;3.80;;
41305;SDS011;27051;50.376;19.152;2023-05-10T07:34:07;7.90;;;3.70;;
41305;SDS011;27051;50.376;19.152;2023-05-10T07:36:34;6.20;;;3.30;;
41305;SDS011;27051;50.376;19.152;2023-05-10T07:39:02;9.40;;;4.30;;
41305;SDS011;27051;50.376;19.152;2023-05-10T07:41:30;7.20;;;3.40;;
41305;SDS011;27051;50.376;19.152;2023-05-10T07:43:57;13.30;;;3.30;;
41305;SDS011;27051;50.376;19.152;2023-05-10T07:46:46;6.00;;;3.20;;
41305;SDS011;27051;50.376;19.152;2023-05-10T07:49:15;8.30;;;3.40;;
41305;SDS011;27051;50.376;19.152;2023-05-10T07:51:45;5.10;;;2.80;;
41305;SDS011;27051;50.376;19.152;2023-05-10T07:54:11;6.20;;;3.00;;
41305;SDS011;27051;50.376;19.152;2023-05-10T07:56:39;5.30;;;3.30;;
41305;SDS011;27051;50.376;19.152;2023-05-10T07:59:07;4.50;;;3.00;;
41305;SDS011;27051;50.376;19.152;2023-05-10T08:01:35;3.70;;;2.70;;
41305;SDS011;27051;50.376;19.152;2023-05-10T08:04:02;4.50;;;2.60;;
41305;SDS011;27051;50.376;19.152;2023-05-10T08:06:30;5.10;;;2.60;;
41305;SDS011;27051;50.376;19.152;2023-05-10T08:08:58;10.80;;;3.00;;
41305;SDS011;27051;50.376;19.152;2023-05-10T08:11:30;6.20;;;2.90;;
41305;SDS011;27051;50.376;19.152;2023-05-10T08:13:58;10.10;;;3.00;;
41305;SDS011;27051;50.376;19.152;2023-05-10T08:16:26;5.40;;;2.70;;
41305;SDS011;27051;50.376;19.152;2023-05-10T08:18:59;3.30;;;2.90;;
41305;SDS011;27051;50.376;19.152;2023-05-10T08:21:27;11.90;;;3.00;;
41305;SDS011;27051;50.376;19.152;2023-05-10T08:23:55;4.10;;;2.80;;
41305;SDS011;27051;50.376;19.152;2023-05-10T08:26:22;5.30;;;2.50;;
41305;SDS011;27051;50.376;19.152;2023-05-10T08:28:50;3.90;;;2.60;;
41305;SDS011;27051;50.376;19.152;2023-05-10T08:31:18;11.80;;;3.40;;
41305;SDS011;27051;50.376;19.152;2023-05-10T08:33:45;12.60;;;3.30;;
41305;SDS011;27051;50.376;19.152;2023-05-10T08:36:13;6.80;;;3.10;;
41305;SDS011;27051;50.376;19.152;2023-05-10T08:38:40;3.50;;;2.50;;
41305;SDS011;27051;50.376;19.152;2023-05-10T08:41:07;5.20;;;2.50;;
41305;SDS011;27051;50.376;19.152;2023-05-10T08:43:38;4.30;;;2.50;;
41305;SDS011;27051;50.376;19.152;2023-05-10T08:46:05;3.90;;;2.40;;
41305;SDS011;27051;50.376;19.152;2023-05-10T08:48:35;3.60;;;2.50;;
41305;SDS011;27051;50.376;19.152;2023-05-10T08:51:04;8.40;;;2.90;;
41305;SDS011;27051;50.376;19.152;2023-05-10T08:53:32;4.80;;;2.70;;
41305;SDS011;27051;50.376;19.152;2023-05-10T08:56:02;6.00;;;2.50;;
41305;SDS011;27051;50.376;19.152;2023-05-10T08:58:30;4.90;;;2.70;;
41305;SDS011;27051;50.376;19.152;2023-05-10T09:00:59;5.40;;;2.60;;
41305;SDS011;27051;50.376;19.152;2023-05-10T09:03:30;3.70;;;2.40;;
41305;SDS011;27051;50.376;19.152;2023-05-10T09:05:57;3.00;;;2.40;;
41305;SDS011;27051;50.376;19.152;2023-05-10T09:08:25;2.80;;;2.20;;
41305;SDS011;27051;50.376;19.152;2023-05-10T09:10:54;2.90;;;2.40;;
41305;SDS011;27051;50.376;19.152;2023-05-10T09:13:22;3.60;;;2.20;;
41305;SDS011;27051;50.376;19.152;2023-05-10T09:15:51;3.30;;;1.90;;
41305;SDS011;27051;50.376;19.152;2023-05-10T09:18:19;3.20;;;2.20;;
41305;SDS011;27051;50.376;19.152;2023-05-10T09:20:48;3.50;;;2.50;;
41305;SDS011;27051;50.376;19.152;2023-05-10T09:23:16;3.30;;;2.30;;
41305;SDS011;27051;50.376;19.152;2023-05-10T09:25:44;4.70;;;2.30;;
41305;SDS011;27051;50.376;19.152;2023-05-10T09:28:11;5.40;;;2.40;;
41305;SDS011;27051;50.376;19.152;2023-05-10T09:30:38;12.20;;;3.30;;
41305;SDS011;27051;50.376;19.152;2023-05-10T09:33:05;6.30;;;2.40;;
41305;SDS011;27051;50.376;19.152;2023-05-10T09:35:35;4.90;;;2.00;;
41305;SDS011;27051;50.376;19.152;2023-05-10T09:38:04;3.50;;;2.20;;
41305;SDS011;27051;50.376;19.152;2023-05-10T09:40:35;4.00;;;2.50;;
41305;SDS011;27051;50.376;19.152;2023-05-10T09:43:06;2.80;;;2.30;;
41305;SDS011;27051;50.376;19.152;2023-05-10T09:45:35;5.00;;;2.50;;
41305;SDS011;27051;50.376;19.152;2023-05-10T09:48:02;11.30;;;2.80;;
41305;SDS011;27051;50.376;19.152;2023-05-10T09:50:31;5.40;;;2.80;;
41305;SDS011;27051;50.376;19.152;2023-05-10T09:52:59;5.00;;;2.30;;
41305;SDS011;27051;50.376;19.152;2023-05-10T09:58:02;6.40;;;2.80;;
41305;SDS011;27051;50.376;19.152;2023-05-10T10:00:42;8.10;;;3.30;;
41305;SDS011;27051;50.376;19.152;2023-05-10T10:03:19;6.10;;;3.10;;
41305;SDS011;27051;50.376;19.152;2023-05-10T10:05:59;5.40;;;3.00;;
41305;SDS011;27051;50.376;19.152;2023-05-10T10:08:28;10.70;;;3.10;;
41305;SDS011;27051;50.376;19.152;2023-05-10T10:10:55;4.60;;;2.80;;
41305;SDS011;27051;50.376;19.152;2023-05-10T10:13:32;3.40;;;2.40;;
41305;SDS011;27051;50.376;19.152;2023-05-10T10:16:00;4.40;;;2.80;;
41305;SDS011;27051;50.376;19.152;2023-05-10T10:18:29;4.00;;;2.60;;
41305;SDS011;27051;50.376;19.152;2023-05-10T10:20:57;6.00;;;3.30;;
41305;SDS011;27051;50.376;19.152;2023-05-10T10:23:25;8.70;;;3.30;;
41305;SDS011;27051;50.376;19.152;2023-05-10T10:25:55;6.20;;;3.60;;
41305;SDS011;27051;50.376;19.152;2023-05-10T10:30:54;4.80;;;2.80;;
41305;SDS011;27051;50.376;19.152;2023-05-10T10:36:44;3.50;;;2.80;;
41305;SDS011;27051;50.376;19.152;2023-05-10T10:39:14;5.10;;;2.30;;
41305;SDS011;27051;50.376;19.152;2023-05-10T10:41:49;4.20;;;2.30;;
41305;SDS011;27051;50.376;19.152;2023-05-10T10:47:05;5.50;;;2.80;;
41305;SDS011;27051;50.376;19.152;2023-05-10T10:49:44;5.50;;;2.80;;
41305;SDS011;27051;50.376;19.152;2023-05-10T10:55:06;5.20;;;2.90;;
41305;SDS011;27051;50.376;19.152;2023-05-10T10:57:49;7.50;;;2.80;;
41305;SDS011;27051;50.376;19.152;2023-05-10T11:00:28;7.80;;;3.10;;
41305;SDS011;27051;50.376;19.152;2023-05-10T11:02:58;8.20;;;3.00;;
41305;SDS011;27051;50.376;19.152;2023-05-10T11:16:15;6.00;;;3.60;;
41305;SDS011;27051;50.376;19.152;2023-05-10T11:19:04;6.60;;;3.00;;
41305;SDS011;27051;50.376;19.152;2023-05-10T11:21:44;11.40;;;3.50;;
41305;SDS011;27051;50.376;19.152;2023-05-10T11:24:20;2.90;;;2.60;;
41305;SDS011;27051;50.376;19.152;2023-05-10T11:26:50;6.30;;;2.60;;
41305;SDS011;27051;50.376;19.152;2023-05-10T11:29:18;4.00;;;2.40;;
41305;SDS011;27051;50.376;19.152;2023-05-10T11:31:47;6.70;;;2.70;;
41305;SDS011;27051;50.376;19.152;2023-05-10T11:34:31;3.80;;;3.10;;
41305;SDS011;27051;50.376;19.152;2023-05-10T11:37:06;12.00;;;3.30;;
41305;SDS011;27051;50.376;19.152;2023-05-10T11:39:33;6.70;;;3.20;;
41305;SDS011;27051;50.376;19.152;2023-05-10T11:42:00;5.90;;;2.80;;
41305;SDS011;27051;50.376;19.152;2023-05-10T11:44:30;4.70;;;2.80;;
41305;SDS011;27051;50.376;19.152;2023-05-10T11:46:58;5.10;;;2.40;;
41305;SDS011;27051;50.376;19.152;2023-05-10T11:49:25;5.20;;;2.60;;
41305;SDS011;27051;50.376;19.152;2023-05-10T11:51:52;5.60;;;2.60;;
41305;SDS011;27051;50.376;19.152;2023-05-10T11:54:19;4.70;;;2.60;;
41305;SDS011;27051;50.376;19.152;2023-05-10T11:56:45;4.90;;;3.10;;
41305;SDS011;27051;50.376;19.152;2023-05-10T11:59:13;4.70;;;2.50;;
41305;SDS011;27051;50.376;19.152;2023-05-10T12:01:41;8.50;;;3.30;;
41305;SDS011;27051;50.376;19.152;2023-05-10T12:04:07;7.50;;;2.90;;
41305;SDS011;27051;50.376;19.152;2023-05-10T12:06:37;6.70;;;2.90;;
41305;SDS011;27051;50.376;19.152;2023-05-10T12:09:07;5.30;;;3.00;;
41305;SDS011;27051;50.376;19.152;2023-05-10T12:11:36;6.00;;;2.80;;
41305;SDS011;27051;50.376;19.152;2023-05-10T12:14:04;9.30;;;2.50;;
41305;SDS011;27051;50.376;19.152;2023-05-10T12:16:31;5.80;;;3.00;;
41305;SDS011;27051;50.376;19.152;2023-05-10T12:18:59;6.20;;;3.00;;
41305;SDS011;27051;50.376;19.152;2023-05-10T12:21:27;5.40;;;2.90;;
41305;SDS011;27051;50.376;19.152;2023-05-10T12:23:59;6.60;;;3.40;;
41305;SDS011;27051;50.376;19.152;2023-05-10T12:26:27;5.40;;;2.90;;
41305;SDS011;27051;50.376;19.152;2023-05-10T12:28:55;7.60;;;3.20;;
41305;SDS011;27051;50.376;19.152;2023-05-10T12:31:55;6.90;;;2.80;;
41305;SDS011;27051;50.376;19.152;2023-05-10T12:34:24;8.30;;;2.90;;
41305;SDS011;27051;50.376;19.152;2023-05-10T12:36:57;3.30;;;2.70;;
41305;SDS011;27051;50.376;19.152;2023-05-10T12:39:24;3.30;;;3.00;;
41305;SDS011;27051;50.376;19.152;2023-05-10T12:41:51;5.70;;;2.80;;
41305;SDS011;27051;50.376;19.152;2023-05-10T12:44:18;3.80;;;2.70;;
41305;SDS011;27051;50.376;19.152;2023-05-10T12:46:45;7.00;;;2.80;;
41305;SDS011;27051;50.376;19.152;2023-05-10T12:49:11;3.20;;;2.20;;
41305;SDS011;27051;50.376;19.152;2023-05-10T12:51:38;5.50;;;2.60;;
41305;SDS011;27051;50.376;19.152;2023-05-10T12:54:05;6.10;;;2.90;;
41305;SDS011;27051;50.376;19.152;2023-05-10T12:56:31;9.00;;;3.10;;
41305;SDS011;27051;50.376;19.152;2023-05-10T12:58:58;8.20;;;2.90;;
41305;SDS011;27051;50.376;19.152;2023-05-10T13:01:24;5.90;;;3.10;;
41305;SDS011;27051;50.376;19.152;2023-05-10T13:03:51;3.20;;;2.70;;
41305;SDS011;27051;50.376;19.152;2023-05-10T13:06:18;5.40;;;2.80;;
41305;SDS011;27051;50.376;19.152;2023-05-10T13:08:44;4.70;;;2.90;;
41305;SDS011;27051;50.376;19.152;2023-05-10T13:11:11;3.80;;;2.50;;
41305;SDS011;27051;50.376;19.152;2023-05-10T13:13:38;8.30;;;2.70;;
41305;SDS011;27051;50.376;19.152;2023-05-10T13:16:04;5.90;;;2.80;;
41305;SDS011;27051;50.376;19.152;2023-05-10T13:21:54;4.60;;;2.60;;
41305;SDS011;27051;50.376;19.152;2023-05-10T13:24:20;6.40;;;2.70;;
41305;SDS011;27051;50.376;19.152;2023-05-10T13:26:47;5.30;;;3.20;;
41305;SDS011;27051;50.376;19.152;2023-05-10T13:29:13;6.20;;;3.30;;
41305;SDS011;27051;50.376;19.152;2023-05-10T13:31:40;5.10;;;2.80;;
41305;SDS011;27051;50.376;19.152;2023-05-10T13:34:07;5.80;;;2.50;;
41305;SDS011;27051;50.376;19.152;2023-05-10T13:36:33;7.00;;;3.20;;
41305;SDS011;27051;50.376;19.152;2023-05-10T13:39:00;5.80;;;2.60;;
41305;SDS011;27051;50.376;19.152;2023-05-10T13:41:27;5.40;;;3.40;;
41305;SDS011;27051;50.376;19.152;2023-05-10T13:43:53;4.30;;;2.90;;
41305;SDS011;27051;50.376;19.152;2023-05-10T13:46:20;4.00;;;2.80;;
41305;SDS011;27051;50.376;19.152;2023-05-10T13:48:47;3.90;;;2.70;;
41305;SDS011;27051;50.376;19.152;2023-05-10T13:51:13;5.30;;;2.70;;
41305;SDS011;27051;50.376;19.152;2023-05-10T13:53:40;5.70;;;2.80;;
41305;SDS011;27051;50.376;19.152;2023-05-10T13:56:07;2.90;;;2.40;;
41305;SDS011;27051;50.376;19.152;2023-05-10T13:58:33;3.20;;;2.60;;
41305;SDS011;27051;50.376;19.152;2023-05-10T14:01:00;8.50;;;3.00;;
41305;SDS011;27051;50.376;19.152;2023-05-10T14:03:27;6.60;;;2.90;;
41305;SDS011;27051;50.376;19.152;2023-05-10T14:05:54;3.60;;;2.30;;
41305;SDS011;27051;50.376;19.152;2023-05-10T14:08:20;6.70;;;2.80;;
41305;SDS011;27051;50.376;19.152;2023-05-10T14:10:47;4.60;;;2.90;;
41305;SDS011;27051;50.376;19.152;2023-05-10T14:13:14;4.20;;;2.40;;
41305;SDS011;27051;50.376;19.152;2023-05-10T14:15:41;4.60;;;2.50;;
41305;SDS011;27051;50.376;19.152;2023-05-10T14:18:08;10.30;;;2.80;;
41305;SDS011;27051;50.376;19.152;2023-05-10T14:20:35;3.40;;;2.70;;
41305;SDS011;27051;50.376;19.152;2023-05-10T14:23:01;6.40;;;4.00;;
41305;SDS011;27051;50.376;19.152;2023-05-10T14:25:28;15.80;;;3.50;;
41305;SDS011;27051;50.376;19.152;2023-05-10T14:27:55;5.90;;;3.00;;
41305;SDS011;27051;50.376;19.152;2023-05-10T14:30:21;4.30;;;2.50;;
41305;SDS011;27051;50.376;19.152;2023-05-10T14:32:48;5.00;;;2.90;;
41305;SDS011;27051;50.376;19.152;2023-05-10T14:35:15;5.30;;;3.30;;
41305;SDS011;27051;50.376;19.152;2023-05-10T14:37:41;8.30;;;3.00;;
41305;SDS011;27051;50.376;19.152;2023-05-10T14:40:08;6.30;;;2.90;;
41305;SDS011;27051;50.376;19.152;2023-05-10T14:42:35;8.40;;;2.90;;
41305;SDS011;27051;50.376;19.152;2023-05-10T14:45:02;5.00;;;2.70;;
41305;SDS011;27051;50.376;19.152;2023-05-10T14:47:29;8.20;;;2.90;;
41305;SDS011;27051;50.376;19.152;2023-05-10T14:49:56;8.30;;;2.80;;
41305;SDS011;27051;50.376;19.152;2023-05-10T14:52:23;7.00;;;3.60;;
41305;SDS011;27051;50.376;19.152;2023-05-10T14:54:53;8.00;;;3.30;;
41305;SDS011;27051;50.376;19.152;2023-05-10T14:57:19;6.20;;;3.00;;
41305;SDS011;27051;50.376;19.152;2023-05-10T14:59:46;5.10;;;3.30;;
41305;SDS011;27051;50.376;19.152;2023-05-10T15:02:13;7.40;;;3.20;;
41305;SDS011;27051;50.376;19.152;2023-05-10T15:04:41;3.80;;;3.00;;
41305;SDS011;27051;50.376;19.152;2023-05-10T15:07:08;5.40;;;2.60;;
41305;SDS011;27051;50.376;19.152;2023-05-10T15:09:34;7.60;;;3.00;;
41305;SDS011;27051;50.376;19.152;2023-05-10T15:12:01;4.50;;;3.10;;
41305;SDS011;27051;50.376;19.152;2023-05-10T15:14:28;9.10;;;4.00;;
41305;SDS011;27051;50.376;19.152;2023-05-10T15:16:55;7.60;;;3.30;;